createdAt,value
2023-03-05T00:01:16.487Z,38.00
2023-03-05T00:03:44.809Z,38.24
2023-03-05T00:06:12.956Z,38.48
2023-03-05T00:08:41.080Z,37.99
2023-03-05T00:11:09.988Z,38.15
2023-03-05T00:13:38.155Z,38.46
2023-03-05T00:16:07.058Z,38.26
2023-03-05T00:18:36.753Z,38.33
2023-03-05T00:21:05.300Z,38.02
2023-03-05T00:23:33.450Z,38.25
2023-03-05T00:26:03.708Z,38.03
2023-03-05T00:28:31.799Z,38.30
2023-03-05T00:31:01.346Z,38.00
2023-03-05T00:33:29.516Z,38.58
2023-03-05T00:36:01.853Z,37.94
2023-03-05T00:38:30.072Z,38.64
2023-03-05T00:40:58.305Z,38.14
2023-03-05T00:43:26.859Z,38.31
2023-03-05T00:45:54.983Z,37.79
2023-03-05T00:48:23.449Z,37.76
2023-03-05T00:50:51.532Z,37.74
2023-03-05T00:53:21.252Z,38.00
2023-03-05T00:55:49.404Z,38.04
2023-03-05T00:58:17.468Z,37.77
2023-03-05T01:00:45.568Z,38.12
2023-03-05T01:03:13.748Z,38.55
2023-03-05T01:05:42.025Z,38.20
2023-03-05T01:08:10.122Z,38.23
2023-03-05T01:10:39.591Z,38.35
2023-03-05T01:13:07.693Z,38.17
2023-03-05T01:15:35.770Z,38.26
2023-03-05T01:18:03.948Z,37.58
2023-03-05T01:20:32.056Z,38.31
2023-03-05T01:23:01.868Z,38.20
2023-03-05T01:25:30.018Z,37.68
2023-03-05T01:27:59.522Z,37.76
2023-03-05T01:30:27.600Z,37.83
2023-03-05T01:32:56.551Z,37.91
2023-03-05T01:35:25.503Z,37.96
2023-03-05T01:37:53.663Z,38.11
2023-03-05T01:40:22.614Z,38.35
2023-03-05T01:42:51.149Z,37.93
2023-03-05T01:45:20.643Z,38.23
2023-03-05T01:47:49.087Z,38.17
2023-03-05T01:50:18.619Z,37.68
2023-03-05T01:52:47.988Z,37.83
2023-03-05T01:55:17.579Z,37.90
2023-03-05T01:57:46.907Z,37.71
2023-03-05T02:00:16.185Z,37.70
2023-03-05T02:02:46.053Z,37.52
2023-03-05T02:05:16.139Z,37.88
2023-03-05T02:07:45.274Z,37.65
2023-03-05T02:10:18.143Z,37.50
2023-03-05T02:12:46.285Z,37.60
2023-03-05T02:15:14.361Z,37.13
2023-03-05T02:17:42.495Z,37.37
2023-03-05T02:20:13.827Z,37.82
2023-03-05T02:22:43.326Z,37.37
2023-03-05T02:25:18.540Z,37.10
2023-03-05T02:27:51.772Z,37.57
2023-03-05T02:30:20.041Z,37.50
2023-03-05T02:32:48.265Z,37.22
2023-03-05T02:35:16.534Z,37.68
2023-03-05T02:37:46.199Z,37.42
2023-03-05T02:40:15.088Z,37.69
2023-03-05T02:42:43.510Z,37.11
2023-03-05T02:45:13.509Z,37.22
2023-03-05T02:47:41.754Z,37.60
2023-03-05T02:50:11.410Z,37.09
2023-03-05T02:52:40.420Z,37.36
2023-03-05T02:55:14.455Z,37.27
2023-03-05T02:57:43.291Z,36.92
2023-03-05T03:00:12.789Z,36.91
2023-03-05T03:02:41.079Z,37.52
2023-03-05T03:05:10.315Z,37.15
2023-03-05T03:07:38.392Z,37.31
2023-03-05T03:10:07.370Z,37.46
2023-03-05T03:12:39.504Z,37.27
2023-03-05T03:15:09.287Z,37.05
2023-03-05T03:17:37.663Z,37.54
2023-03-05T03:20:06.534Z,37.38
2023-03-05T03:22:34.643Z,37.43
2023-03-05T03:25:02.777Z,37.35
2023-03-05T03:27:30.908Z,36.88
2023-03-05T03:30:02.663Z,37.35
2023-03-05T03:32:30.854Z,37.21
2023-03-05T03:34:59.006Z,37.30
2023-03-05T03:37:27.124Z,36.91
2023-03-05T03:39:55.235Z,36.69
2023-03-05T03:42:23.898Z,36.97
2023-03-05T03:44:52.090Z,37.37
2023-03-05T03:47:21.674Z,36.52
2023-03-05T03:49:49.782Z,36.48
2023-03-05T03:52:17.885Z,36.98
2023-03-05T03:54:46.018Z,36.99
2023-03-05T03:57:14.119Z,37.12
2023-03-05T03:59:42.399Z,36.56
2023-03-05T04:02:10.494Z,36.45
2023-03-05T04:04:40.080Z,36.24
2023-03-05T04:07:08.284Z,36.71
2023-03-05T04:09:36.344Z,36.72
2023-03-05T04:12:04.644Z,36.31
2023-03-05T04:14:32.708Z,36.42
2023-03-05T04:17:00.871Z,36.67
2023-03-05T04:19:30.748Z,36.44
2023-03-05T04:22:00.508Z,36.63
2023-03-05T04:24:28.615Z,35.93
2023-03-05T04:26:56.848Z,36.26
2023-03-05T04:29:24.908Z,36.16
2023-03-05T04:31:53.017Z,35.97
2023-03-05T04:34:21.093Z,36.46
2023-03-05T04:36:49.202Z,35.96
2023-03-05T04:39:20.978Z,36.25
2023-03-05T04:41:49.183Z,36.41
2023-03-05T04:44:17.800Z,36.40
2023-03-05T04:46:46.150Z,36.48
2023-03-05T04:49:14.333Z,35.84
2023-03-05T04:51:42.439Z,36.46
2023-03-05T04:54:10.588Z,35.89
2023-03-05T04:56:40.070Z,35.76
2023-03-05T04:59:08.183Z,36.47
2023-03-05T05:01:36.245Z,35.83
2023-03-05T05:04:04.496Z,35.70
2023-03-05T05:06:32.600Z,36.04
2023-03-05T05:09:00.660Z,36.31
2023-03-05T05:11:28.738Z,36.10
2023-03-05T05:13:58.270Z,35.62
2023-03-05T05:16:26.434Z,35.63
2023-03-05T05:18:54.613Z,35.55
2023-03-05T05:21:22.722Z,36.33
2023-03-05T05:23:50.826Z,35.88
2023-03-05T05:26:18.915Z,35.62
2023-03-05T05:28:47.172Z,35.60
2023-03-05T05:31:17.186Z,36.28
2023-03-05T05:33:46.333Z,35.68
2023-03-05T05:36:16.318Z,35.93
2023-03-05T05:38:44.393Z,36.25
2023-03-05T05:41:13.344Z,35.54
2023-03-05T05:43:41.526Z,35.53
2023-03-05T05:46:12.226Z,35.89
2023-03-05T05:48:41.896Z,36.08
2023-03-05T05:51:12.120Z,35.80
2023-03-05T05:53:40.358Z,35.51
2023-03-05T05:56:09.244Z,35.87
2023-03-05T05:58:37.507Z,35.97
2023-03-05T06:01:13.332Z,36.25
2023-03-05T06:03:42.846Z,35.51
2023-03-05T06:06:11.961Z,36.29
2023-03-05T06:08:40.135Z,35.55
2023-03-05T06:11:08.396Z,36.13
2023-03-05T06:13:36.563Z,35.78
2023-03-05T06:16:05.774Z,35.76
2023-03-05T06:18:34.408Z,35.52
2023-03-05T06:21:04.847Z,35.88
2023-03-05T06:23:32.978Z,35.66
2023-03-05T06:26:01.265Z,36.11
2023-03-05T06:28:29.491Z,35.96
2023-03-05T06:31:03.916Z,35.70
2023-03-05T06:33:32.035Z,35.50
2023-03-05T06:36:00.222Z,35.49
2023-03-05T06:38:30.192Z,36.05
2023-03-05T06:41:02.020Z,35.51
2023-03-05T06:43:30.112Z,35.42
2023-03-05T06:46:04.893Z,35.50
2023-03-05T06:48:33.443Z,35.69
2023-03-05T06:51:01.880Z,35.69
2023-03-05T06:53:31.340Z,36.05
2023-03-05T06:56:02.104Z,35.82
2023-03-05T06:58:30.242Z,36.04
2023-03-05T07:00:58.428Z,35.64
2023-03-05T07:03:26.528Z,36.09
2023-03-05T07:05:54.692Z,35.93
2023-03-05T07:08:22.769Z,35.62
2023-03-05T07:10:52.268Z,36.03
2023-03-05T07:13:20.370Z,35.73
2023-03-05T07:15:48.593Z,36.02
2023-03-05T07:18:16.645Z,36.11
2023-03-05T07:20:44.784Z,35.83
2023-03-05T07:23:12.860Z,35.52
2023-03-05T07:25:41.038Z,35.55
2023-03-05T07:28:10.689Z,36.23
2023-03-05T07:30:38.960Z,36.62
2023-03-05T07:33:07.069Z,35.78
2023-03-05T07:35:35.175Z,36.13
2023-03-05T07:38:03.321Z,36.10
2023-03-05T07:40:31.365Z,35.79
2023-03-05T07:42:59.468Z,35.99
2023-03-05T07:45:33.306Z,36.24
2023-03-05T07:48:01.418Z,36.08
2023-03-05T07:50:29.551Z,36.16
2023-03-05T07:52:57.755Z,36.14
2023-03-05T07:55:25.944Z,35.99
2023-03-05T07:57:54.263Z,35.91
2023-03-05T08:00:22.675Z,35.88
2023-03-05T08:02:52.178Z,36.33
2023-03-05T08:05:20.459Z,35.77
2023-03-05T08:07:48.621Z,35.71
2023-03-05T08:10:16.719Z,36.63
2023-03-05T08:12:44.828Z,36.03
2023-03-05T08:15:13.236Z,36.30
2023-03-05T08:17:41.376Z,36.15
2023-03-05T08:20:12.397Z,36.66
2023-03-05T08:22:40.486Z,36.25
2023-03-05T08:25:09.218Z,36.35
2023-03-05T08:27:40.056Z,36.43
2023-03-05T08:30:09.748Z,35.99
2023-03-05T08:32:37.858Z,36.42
2023-03-05T08:35:06.978Z,35.87
2023-03-05T08:37:36.434Z,36.27
2023-03-05T08:40:05.224Z,36.06
2023-03-05T08:42:33.275Z,36.25
2023-03-05T08:45:01.522Z,36.61
2023-03-05T08:47:29.605Z,35.92
2023-03-05T08:49:58.564Z,36.78
2023-03-05T08:52:27.347Z,36.32
2023-03-05T08:54:57.112Z,36.75
2023-03-05T08:57:25.182Z,36.97
2023-03-05T08:59:53.276Z,36.72
2023-03-05T09:02:21.371Z,37.03
2023-03-05T09:04:49.482Z,36.85
2023-03-05T09:07:17.698Z,37.09
2023-03-05T09:09:45.812Z,37.37
2023-03-05T09:12:16.039Z,37.32
2023-03-05T09:14:44.170Z,37.72
2023-03-05T09:17:12.249Z,38.02
2023-03-05T09:19:40.347Z,38.39
2023-03-05T09:22:08.413Z,38.63
2023-03-05T09:24:36.526Z,39.15
2023-03-05T09:27:04.718Z,38.84
2023-03-05T09:29:34.195Z,39.81
2023-03-05T09:32:02.410Z,38.78
2023-03-05T09:34:30.596Z,38.14
2023-03-05T09:36:58.788Z,37.53
2023-03-05T09:39:27.008Z,36.71
2023-03-05T09:42:12.931Z,36.33
2023-03-05T09:44:46.655Z,35.44
2023-03-05T09:47:23.310Z,33.19
2023-03-05T09:49:54.452Z,34.15
2023-03-05T09:52:23.378Z,34.39
2023-03-05T09:54:54.657Z,34.40
2023-03-05T09:57:24.117Z,34.56
2023-03-05T09:59:55.213Z,34.66
2023-03-05T10:02:25.776Z,34.84
2023-03-05T10:04:56.025Z,34.75
2023-03-05T10:07:27.197Z,34.21
2023-03-05T10:09:57.200Z,34.02
2023-03-05T10:12:28.810Z,34.53
2023-03-05T10:15:00.637Z,34.77
2023-03-05T10:17:47.323Z,34.65
2023-03-05T10:20:32.200Z,34.46
2023-03-05T10:23:11.395Z,34.84
2023-03-05T10:25:51.452Z,35.00
2023-03-05T10:28:21.434Z,34.23
2023-03-05T10:31:03.584Z,34.62
2023-03-05T10:33:34.261Z,34.59
2023-03-05T10:36:26.332Z,34.58
2023-03-05T10:39:05.182Z,34.50
2023-03-05T10:41:35.721Z,34.97
2023-03-05T10:44:06.212Z,34.88
2023-03-05T10:46:36.643Z,34.37
2023-03-05T10:49:07.637Z,34.62
2023-03-05T10:51:37.652Z,34.79
2023-03-05T10:54:10.344Z,34.43
2023-03-05T10:56:38.542Z,34.30
2023-03-05T10:59:06.588Z,34.36
2023-03-05T11:01:37.434Z,34.50
2023-03-05T11:04:05.972Z,34.37
2023-03-05T11:06:36.318Z,35.00
2023-03-05T11:09:18.340Z,34.35
2023-03-05T11:11:46.527Z,34.85
2023-03-05T11:14:31.174Z,34.87
2023-03-05T11:17:00.736Z,34.86
2023-03-05T11:19:32.856Z,34.86
2023-03-05T11:22:10.861Z,34.91
2023-03-05T11:24:39.006Z,34.41
2023-03-05T11:27:25.512Z,34.27
2023-03-05T11:29:53.679Z,35.00
2023-03-05T11:32:25.423Z,34.99
2023-03-05T11:34:53.759Z,34.67
2023-03-05T11:37:24.606Z,34.43
2023-03-05T11:40:08.471Z,34.80
2023-03-05T11:42:36.770Z,34.21
2023-03-05T11:45:05.570Z,34.36
2023-03-05T11:47:37.659Z,34.56
2023-03-05T11:50:13.124Z,34.74
2023-03-05T11:52:43.438Z,34.85
2023-03-05T11:55:14.255Z,35.03
2023-03-05T11:57:44.225Z,34.82
2023-03-05T12:00:16.453Z,34.77
2023-03-05T12:02:53.641Z,34.45
2023-03-05T12:05:21.844Z,34.48
2023-03-05T12:07:51.481Z,34.96
2023-03-05T12:10:21.033Z,34.80
2023-03-05T12:12:50.779Z,35.03
2023-03-05T12:15:40.116Z,35.31
2023-03-05T12:18:29.700Z,35.02
2023-03-05T12:21:02.732Z,35.12
2023-03-05T12:23:31.082Z,35.22
2023-03-05T12:26:01.332Z,34.64
2023-03-05T12:28:57.121Z,35.12
2023-03-05T12:31:39.524Z,35.25
2023-03-05T12:34:49.212Z,35.27
2023-03-05T12:37:50.591Z,34.80
2023-03-05T12:40:23.065Z,34.82
2023-03-05T12:42:56.035Z,34.90
2023-03-05T12:45:29.202Z,35.04
2023-03-05T12:48:33.484Z,34.80
2023-03-05T12:51:03.231Z,34.85
2023-03-05T12:53:31.568Z,34.99
2023-03-05T12:56:04.085Z,35.47
2023-03-05T12:58:38.735Z,35.41
2023-03-05T13:01:13.600Z,34.84
2023-03-05T13:03:45.098Z,35.07
2023-03-05T13:06:25.893Z,35.24
2023-03-05T13:08:58.182Z,35.64
2023-03-05T13:11:26.316Z,35.08
2023-03-05T13:13:54.466Z,34.85
2023-03-05T13:16:24.583Z,35.25
2023-03-05T13:18:52.937Z,35.25
2023-03-05T13:21:21.794Z,34.94
2023-03-05T13:23:57.786Z,35.17
2023-03-05T13:26:26.935Z,35.45
2023-03-05T13:29:08.550Z,35.69
2023-03-05T13:31:36.976Z,35.26
2023-03-05T13:34:11.403Z,35.12
2023-03-05T13:36:39.552Z,35.46
2023-03-05T13:39:09.033Z,35.78
2023-03-05T13:41:37.127Z,35.40
2023-03-05T13:44:05.295Z,35.79
2023-03-05T13:46:34.317Z,35.12
2023-03-05T13:49:18.331Z,35.62
2023-03-05T13:51:47.373Z,35.79
2023-03-05T13:54:17.834Z,35.90
2023-03-05T13:56:53.685Z,35.24
2023-03-05T13:59:22.673Z,35.44
2023-03-05T14:01:50.751Z,35.31
2023-03-05T14:04:21.766Z,35.15
2023-03-05T14:06:50.615Z,35.41
2023-03-05T14:09:21.845Z,35.81
2023-03-05T14:11:57.436Z,35.15
2023-03-05T14:14:25.852Z,35.88
2023-03-05T14:16:54.006Z,35.86
2023-03-05T14:19:36.707Z,35.26
2023-03-05T14:22:05.016Z,35.88
2023-03-05T14:24:34.716Z,35.95
2023-03-05T14:27:05.720Z,35.33
2023-03-05T14:29:33.920Z,35.98
2023-03-05T14:32:04.128Z,35.40
2023-03-05T14:34:33.093Z,35.53
2023-03-05T14:37:03.217Z,35.45
2023-03-05T14:39:41.280Z,35.81
2023-03-05T14:42:29.187Z,35.49
2023-03-05T14:44:58.103Z,35.69
2023-03-05T14:47:26.292Z,35.40
2023-03-05T14:49:54.388Z,35.58
2023-03-05T14:52:23.480Z,35.74
2023-03-05T14:54:53.189Z,35.65
2023-03-05T14:57:22.501Z,35.17
2023-03-05T14:59:50.639Z,35.19
2023-03-05T15:02:19.271Z,35.83
2023-03-05T15:04:47.519Z,35.34
2023-03-05T15:07:20.417Z,35.03
2023-03-05T15:09:48.563Z,35.64
2023-03-05T15:12:18.129Z,35.39
2023-03-05T15:14:46.239Z,35.33
2023-03-05T15:17:19.162Z,35.86
2023-03-05T15:19:47.853Z,35.97
2023-03-05T15:22:16.271Z,35.53
2023-03-05T15:24:44.414Z,35.62
2023-03-05T15:27:12.629Z,35.24
2023-03-05T15:29:42.138Z,35.60
2023-03-05T15:32:10.316Z,35.25
2023-03-05T15:34:38.478Z,35.83
2023-03-05T15:37:06.611Z,35.14
2023-03-05T15:39:34.722Z,35.19
2023-03-05T15:42:04.450Z,35.36
2023-03-05T15:44:33.405Z,35.41
2023-03-05T15:47:02.938Z,35.80
2023-03-05T15:49:31.075Z,35.14
2023-03-05T15:51:59.158Z,35.17
2023-03-05T15:54:27.768Z,35.07
2023-03-05T15:56:55.828Z,35.61
2023-03-05T15:59:24.026Z,35.16
2023-03-05T16:01:52.877Z,35.72
2023-03-05T16:04:22.412Z,34.96
2023-03-05T16:06:50.560Z,35.35
2023-03-05T16:09:20.189Z,35.72
2023-03-05T16:11:51.326Z,35.42
2023-03-05T16:14:21.038Z,35.12
2023-03-05T16:16:49.067Z,35.38
2023-03-05T16:19:17.831Z,35.38
2023-03-05T16:21:47.432Z,35.12
2023-03-05T16:24:15.534Z,35.08
2023-03-05T16:26:43.656Z,35.30
2023-03-05T16:29:12.495Z,34.88
2023-03-05T16:31:43.116Z,34.66
2023-03-05T16:34:14.067Z,35.32
2023-03-05T16:36:42.210Z,34.41
2023-03-05T16:39:11.697Z,34.67
2023-03-05T16:41:39.823Z,35.02
2023-03-05T16:44:07.953Z,34.93
2023-03-05T16:46:36.069Z,34.64
2023-03-05T16:49:04.586Z,34.59
2023-03-05T16:51:32.693Z,34.86
2023-03-05T16:54:00.851Z,34.84
2023-03-05T16:56:30.302Z,34.17
2023-03-05T16:58:58.411Z,34.60
2023-03-05T17:01:26.994Z,34.54
2023-03-05T17:03:55.226Z,34.46
2023-03-05T17:06:24.330Z,34.22
2023-03-05T17:08:52.736Z,34.64
2023-03-05T17:11:21.266Z,34.54
2023-03-05T17:13:50.863Z,34.66
2023-03-05T17:16:19.479Z,34.10
2023-03-05T17:18:47.685Z,34.72
2023-03-05T17:21:16.564Z,34.04
2023-03-05T17:23:44.721Z,34.37
2023-03-05T17:26:13.871Z,34.43
2023-03-05T17:28:42.118Z,34.45
2023-03-05T17:31:11.642Z,34.16
2023-03-05T17:33:39.987Z,34.42
2023-03-05T17:36:14.984Z,33.89
2023-03-05T17:38:43.100Z,34.56
2023-03-05T17:41:11.382Z,34.09
2023-03-05T17:43:39.569Z,34.25
2023-03-05T17:46:07.808Z,33.90
2023-03-05T17:48:39.231Z,34.48
2023-03-05T17:51:07.508Z,34.37
2023-03-05T17:53:36.097Z,33.88
2023-03-05T17:56:07.217Z,34.14
2023-03-05T17:58:35.398Z,34.14
2023-03-05T18:01:03.523Z,34.44
2023-03-05T18:03:31.679Z,34.86
2023-03-05T18:06:01.164Z,34.52
2023-03-05T18:08:29.348Z,35.28
2023-03-05T18:10:57.414Z,35.38
2023-03-05T18:13:25.664Z,35.60
2023-03-05T18:15:53.724Z,36.15
2023-03-05T18:18:21.859Z,35.94
2023-03-05T18:20:50.559Z,35.75
2023-03-05T18:23:20.134Z,35.92
2023-03-05T18:25:48.174Z,36.15
2023-03-05T18:28:16.909Z,35.87
2023-03-05T18:30:45.912Z,35.91
2023-03-05T18:33:16.466Z,35.68
2023-03-05T18:35:44.624Z,35.96
2023-03-05T18:38:12.916Z,35.94
2023-03-05T18:40:43.858Z,36.25
2023-03-05T18:43:12.128Z,36.34
2023-03-05T18:45:40.391Z,36.41
2023-03-05T18:48:08.928Z,36.09
2023-03-05T18:50:37.072Z,35.94
2023-03-05T18:53:05.179Z,36.38
2023-03-05T18:55:33.415Z,36.58
2023-03-05T18:58:05.068Z,36.48
2023-03-05T19:00:33.528Z,36.22
2023-03-05T19:03:03.546Z,36.58
2023-03-05T19:05:32.321Z,36.00
2023-03-05T19:08:00.732Z,36.37
2023-03-05T19:10:29.087Z,36.69
2023-03-05T19:13:39.929Z,36.48
2023-03-05T19:16:10.403Z,36.47
2023-03-05T19:19:18.329Z,36.64
2023-03-05T19:21:47.481Z,36.14
2023-03-05T19:24:15.791Z,36.89
2023-03-05T19:26:44.548Z,36.41
2023-03-05T19:29:14.151Z,36.75
2023-03-05T19:31:42.482Z,37.07
2023-03-05T19:34:10.698Z,37.00
2023-03-05T19:36:38.972Z,36.59
2023-03-05T19:39:07.432Z,37.04
2023-03-05T19:41:36.043Z,37.22
2023-03-05T19:44:04.211Z,36.95
2023-03-05T19:46:34.125Z,37.03
2023-03-05T19:49:02.345Z,37.19
2023-03-05T19:51:30.569Z,37.62
2023-03-05T19:53:58.866Z,37.31
2023-03-05T19:56:27.118Z,37.49
2023-03-05T19:58:55.669Z,37.95
2023-03-05T20:01:26.072Z,37.56
2023-03-05T20:03:56.815Z,37.57
2023-03-05T20:06:25.157Z,37.65
2023-03-05T20:08:53.357Z,37.83
2023-03-05T20:11:21.751Z,37.83
2023-03-05T20:13:50.344Z,37.19
2023-03-05T20:16:23.518Z,37.82
2023-03-05T20:18:53.062Z,37.32
2023-03-05T20:21:24.184Z,37.88
2023-03-05T20:23:52.895Z,37.71
2023-03-05T20:26:21.149Z,37.16
2023-03-05T20:28:50.097Z,37.54
2023-03-05T20:31:19.305Z,37.45
2023-03-05T20:33:47.657Z,37.84
2023-03-05T20:36:15.853Z,37.86
2023-03-05T20:38:45.909Z,37.15
2023-03-05T20:41:15.272Z,37.75
2023-03-05T20:43:44.917Z,37.06
2023-03-05T20:46:16.912Z,37.63
2023-03-05T20:48:45.832Z,37.69
2023-03-05T20:51:14.687Z,37.48
2023-03-05T20:53:43.209Z,37.56
2023-03-05T20:56:12.701Z,37.09
2023-03-05T20:58:40.807Z,37.51
2023-03-05T21:01:08.981Z,37.60
2023-03-05T21:03:38.816Z,37.05
2023-03-05T21:06:07.499Z,37.00
2023-03-05T21:08:35.694Z,37.15
2023-03-05T21:11:06.514Z,37.05
2023-03-05T21:13:36.088Z,37.32
2023-03-05T21:16:07.457Z,37.33
2023-03-05T21:18:35.605Z,37.14
2023-03-05T21:21:03.722Z,37.30
2023-03-05T21:23:32.846Z,36.87
2023-03-05T21:26:00.903Z,37.51
2023-03-05T21:28:30.030Z,37.55
2023-03-05T21:30:59.533Z,36.92
2023-03-05T21:33:28.714Z,36.80
2023-03-05T21:35:58.137Z,37.14
2023-03-05T21:38:29.845Z,36.69
2023-03-05T21:40:58.959Z,37.37
2023-03-05T21:43:27.251Z,37.02
2023-03-05T21:45:57.217Z,36.97
2023-03-05T21:48:26.916Z,36.97
2023-03-05T21:50:55.508Z,37.31
2023-03-05T21:53:23.736Z,36.67
2023-03-05T21:56:25.165Z,37.20
2023-03-05T21:58:53.430Z,37.31
2023-03-05T22:01:22.188Z,37.18
2023-03-05T22:03:51.837Z,36.65
2023-03-05T22:06:22.555Z,37.09
2023-03-05T22:08:51.346Z,36.69
2023-03-05T22:11:20.869Z,36.94
2023-03-05T22:13:49.144Z,36.56
2023-03-05T22:16:24.351Z,36.47
2023-03-05T22:18:54.097Z,37.15
2023-03-05T22:21:23.206Z,36.97
2023-03-05T22:23:51.325Z,36.94
2023-03-05T22:26:19.411Z,37.06
2023-03-05T22:28:47.556Z,37.11
2023-03-05T22:31:21.065Z,36.49
2023-03-05T22:33:49.240Z,36.75
2023-03-05T22:36:18.683Z,36.89
2023-03-05T22:38:47.002Z,36.50
2023-03-05T22:41:15.988Z,36.32
2023-03-05T22:43:44.198Z,36.86
2023-03-05T22:46:12.759Z,36.85
2023-03-05T22:48:41.091Z,36.74
2023-03-05T22:51:09.467Z,36.49
2023-03-05T22:53:39.004Z,36.36
2023-03-05T22:56:08.163Z,36.77
2023-03-05T22:58:36.264Z,36.68
2023-03-05T23:01:04.587Z,36.31
2023-03-05T23:03:32.784Z,36.72
2023-03-05T23:06:00.956Z,36.21
2023-03-05T23:08:29.042Z,36.46
2023-03-05T23:10:58.543Z,36.32
2023-03-05T23:13:26.651Z,36.30
2023-03-05T23:15:54.785Z,36.27
2023-03-05T23:18:22.899Z,36.13
2023-03-05T23:20:53.630Z,36.28
2023-03-05T23:23:21.800Z,36.15
2023-03-05T23:25:51.206Z,36.17
2023-03-05T23:28:20.781Z,36.60
2023-03-05T23:30:48.931Z,36.61
2023-03-05T23:33:17.854Z,36.65
2023-03-05T23:35:51.044Z,36.18
2023-03-05T23:38:19.148Z,36.21
2023-03-05T23:40:48.097Z,36.48
2023-03-05T23:43:16.428Z,36.10
2023-03-05T23:45:48.010Z,35.97
2023-03-05T23:48:16.226Z,36.01
2023-03-05T23:50:47.538Z,36.15
2023-03-05T23:53:17.233Z,36.29
2023-03-05T23:55:45.749Z,36.05
2023-03-05T23:58:14.226Z,35.93
